sensor_id;sensor_type;location;lat;lon;timestamp;P1;durP1;ratioP1;P2;durP2;ratioP2
68108;SDS011;54893;49.864;19.084;2023-06-26T00:04:10;14.43;;;7.30;;
68108;SDS011;54893;49.864;19.084;2023-06-26T00:09:14;12.52;;;6.68;;
68108;SDS011;54893;49.864;19.084;2023-06-26T00:14:14;12.27;;;6.13;;
68108;SDS011;54893;49.864;19.084;2023-06-26T00:19:15;15.17;;;6.70;;
68108;SDS011;54893;49.864;19.084;2023-06-26T00:24:16;15.30;;;6.47;;
68108;SDS011;54893;49.864;19.084;2023-06-26T00:29:16;13.00;;;6.47;;
68108;SDS011;54893;49.864;19.084;2023-06-26T00:34:17;13.60;;;6.57;;
68108;SDS011;54893;49.864;19.084;2023-06-26T00:39:17;15.70;;;6.97;;
68108;SDS011;54893;49.864;19.084;2023-06-26T00:44:18;14.47;;;6.87;;
68108;SDS011;54893;49.864;19.084;2023-06-26T00:49:18;14.33;;;6.40;;
68108;SDS011;54893;49.864;19.084;2023-06-26T00:54:19;16.17;;;6.80;;
68108;SDS011;54893;49.864;19.084;2023-06-26T00:59:22;15.35;;;6.60;;
68108;SDS011;54893;49.864;19.084;2023-06-26T01:04:22;13.83;;;6.80;;
68108;SDS011;54893;49.864;19.084;2023-06-26T01:09:27;13.73;;;6.95;;
68108;SDS011;54893;49.864;19.084;2023-06-26T01:14:28;17.00;;;6.93;;
68108;SDS011;54893;49.864;19.084;2023-06-26T01:19:29;13.50;;;7.10;;
68108;SDS011;54893;49.864;19.084;2023-06-26T01:24:33;15.82;;;7.07;;
68108;SDS011;54893;49.864;19.084;2023-06-26T01:29:37;16.00;;;6.87;;
68108;SDS011;54893;49.864;19.084;2023-06-26T01:34:38;16.02;;;6.45;;
68108;SDS011;54893;49.864;19.084;2023-06-26T01:39:39;12.73;;;5.73;;
68108;SDS011;54893;49.864;19.084;2023-06-26T01:44:42;12.63;;;5.90;;
68108;SDS011;54893;49.864;19.084;2023-06-26T01:50:00;17.23;;;5.88;;
68108;SDS011;54893;49.864;19.084;2023-06-26T02:00:23;16.35;;;6.93;;
68108;SDS011;54893;49.864;19.084;2023-06-26T02:05:26;12.75;;;6.10;;
68108;SDS011;54893;49.864;19.084;2023-06-26T02:10:26;15.03;;;6.60;;
68108;SDS011;54893;49.864;19.084;2023-06-26T02:15:26;18.27;;;7.53;;
68108;SDS011;54893;49.864;19.084;2023-06-26T02:20:27;15.23;;;6.60;;
68108;SDS011;54893;49.864;19.084;2023-06-26T02:25:27;15.70;;;7.00;;
68108;SDS011;54893;49.864;19.084;2023-06-26T02:30:28;13.30;;;6.43;;
68108;SDS011;54893;49.864;19.084;2023-06-26T02:35:28;14.80;;;6.80;;
68108;SDS011;54893;49.864;19.084;2023-06-26T02:40:28;15.90;;;6.57;;
68108;SDS011;54893;49.864;19.084;2023-06-26T02:45:29;17.33;;;7.40;;
68108;SDS011;54893;49.864;19.084;2023-06-26T02:50:29;14.57;;;6.90;;
68108;SDS011;54893;49.864;19.084;2023-06-26T02:55:30;12.73;;;6.43;;
68108;SDS011;54893;49.864;19.084;2023-06-26T03:00:30;14.70;;;6.80;;
68108;SDS011;54893;49.864;19.084;2023-06-26T03:05:30;16.03;;;7.30;;
68108;SDS011;54893;49.864;19.084;2023-06-26T03:10:31;15.77;;;6.97;;
68108;SDS011;54893;49.864;19.084;2023-06-26T03:15:31;20.47;;;7.43;;
68108;SDS011;54893;49.864;19.084;2023-06-26T03:20:31;14.43;;;7.10;;
68108;SDS011;54893;49.864;19.084;2023-06-26T03:25:32;18.47;;;7.87;;
68108;SDS011;54893;49.864;19.084;2023-06-26T03:30:32;17.20;;;7.67;;
68108;SDS011;54893;49.864;19.084;2023-06-26T03:35:33;19.73;;;7.90;;
68108;SDS011;54893;49.864;19.084;2023-06-26T03:40:33;16.87;;;7.80;;
68108;SDS011;54893;49.864;19.084;2023-06-26T03:45:34;19.93;;;7.73;;
68108;SDS011;54893;49.864;19.084;2023-06-26T03:50:34;17.63;;;7.47;;
68108;SDS011;54893;49.864;19.084;2023-06-26T03:55:34;15.30;;;7.07;;
68108;SDS011;54893;49.864;19.084;2023-06-26T04:00:35;20.67;;;8.00;;
68108;SDS011;54893;49.864;19.084;2023-06-26T04:05:35;17.63;;;7.67;;
68108;SDS011;54893;49.864;19.084;2023-06-26T04:10:36;15.83;;;7.67;;
68108;SDS011;54893;49.864;19.084;2023-06-26T04:15:36;14.33;;;7.17;;
68108;SDS011;54893;49.864;19.084;2023-06-26T04:20:38;14.07;;;7.60;;
68108;SDS011;54893;49.864;19.084;2023-06-26T04:25:39;14.98;;;7.20;;
68108;SDS011;54893;49.864;19.084;2023-06-26T04:30:39;15.67;;;7.77;;
68108;SDS011;54893;49.864;19.084;2023-06-26T04:35:40;14.53;;;7.43;;
68108;SDS011;54893;49.864;19.084;2023-06-26T04:40:40;15.67;;;7.17;;
68108;SDS011;54893;49.864;19.084;2023-06-26T04:45:41;13.30;;;6.97;;
68108;SDS011;54893;49.864;19.084;2023-06-26T04:50:41;13.70;;;6.53;;
68108;SDS011;54893;49.864;19.084;2023-06-26T04:55:42;15.45;;;6.80;;
68108;SDS011;54893;49.864;19.084;2023-06-26T05:00:42;12.77;;;7.30;;
68108;SDS011;54893;49.864;19.084;2023-06-26T05:05:43;14.53;;;7.13;;
68108;SDS011;54893;49.864;19.084;2023-06-26T05:10:44;14.70;;;7.40;;
68108;SDS011;54893;49.864;19.084;2023-06-26T05:15:45;16.65;;;7.10;;
68108;SDS011;54893;49.864;19.084;2023-06-26T05:20:46;13.50;;;7.50;;
68108;SDS011;54893;49.864;19.084;2023-06-26T05:25:47;15.40;;;7.57;;
68108;SDS011;54893;49.864;19.084;2023-06-26T05:30:47;13.60;;;7.57;;
68108;SDS011;54893;49.864;19.084;2023-06-26T05:35:48;15.40;;;7.37;;
68108;SDS011;54893;49.864;19.084;2023-06-26T05:40:51;19.00;;;7.95;;
68108;SDS011;54893;49.864;19.084;2023-06-26T05:45:52;14.13;;;7.83;;
68108;SDS011;54893;49.864;19.084;2023-06-26T05:50:52;16.90;;;7.20;;
68108;SDS011;54893;49.864;19.084;2023-06-26T05:55:53;14.35;;;7.25;;
68108;SDS011;54893;49.864;19.084;2023-06-26T06:00:53;14.07;;;6.90;;
68108;SDS011;54893;49.864;19.084;2023-06-26T06:05:54;15.97;;;8.47;;
68108;SDS011;54893;49.864;19.084;2023-06-26T06:10:55;17.00;;;7.60;;
68108;SDS011;54893;49.864;19.084;2023-06-26T06:15:55;15.10;;;8.00;;
68108;SDS011;54893;49.864;19.084;2023-06-26T06:20:56;16.83;;;8.00;;
68108;SDS011;54893;49.864;19.084;2023-06-26T06:25:56;13.67;;;7.17;;
68108;SDS011;54893;49.864;19.084;2023-06-26T06:30:57;15.63;;;8.13;;
68108;SDS011;54893;49.864;19.084;2023-06-26T06:35:58;14.57;;;7.50;;
68108;SDS011;54893;49.864;19.084;2023-06-26T06:40:58;13.00;;;7.07;;
68108;SDS011;54893;49.864;19.084;2023-06-26T06:45:58;13.00;;;7.20;;
68108;SDS011;54893;49.864;19.084;2023-06-26T06:50:59;14.50;;;7.20;;
68108;SDS011;54893;49.864;19.084;2023-06-26T06:55:59;15.07;;;7.50;;
68108;SDS011;54893;49.864;19.084;2023-06-26T07:01:00;12.43;;;7.07;;
68108;SDS011;54893;49.864;19.084;2023-06-26T07:06:03;12.88;;;6.80;;
68108;SDS011;54893;49.864;19.084;2023-06-26T07:11:04;13.43;;;7.73;;
68108;SDS011;54893;49.864;19.084;2023-06-26T07:16:04;14.33;;;7.97;;
68108;SDS011;54893;49.864;19.084;2023-06-26T07:21:05;12.20;;;7.90;;
68108;SDS011;54893;49.864;19.084;2023-06-26T07:26:05;11.87;;;7.03;;
68108;SDS011;54893;49.864;19.084;2023-06-26T07:31:05;13.80;;;7.20;;
68108;SDS011;54893;49.864;19.084;2023-06-26T07:36:06;14.57;;;7.50;;
68108;SDS011;54893;49.864;19.084;2023-06-26T07:41:06;13.37;;;7.07;;
68108;SDS011;54893;49.864;19.084;2023-06-26T07:46:07;13.70;;;7.67;;
68108;SDS011;54893;49.864;19.084;2023-06-26T07:51:07;13.00;;;6.00;;
68108;SDS011;54893;49.864;19.084;2023-06-26T07:56:07;13.05;;;5.75;;
68108;SDS011;54893;49.864;19.084;2023-06-26T08:01:08;12.25;;;6.75;;
68108;SDS011;54893;49.864;19.084;2023-06-26T08:06:08;14.53;;;5.80;;
68108;SDS011;54893;49.864;19.084;2023-06-26T08:11:09;10.70;;;5.47;;
68108;SDS011;54893;49.864;19.084;2023-06-26T08:16:09;10.77;;;5.53;;
68108;SDS011;54893;49.864;19.084;2023-06-26T08:21:10;10.50;;;4.60;;
68108;SDS011;54893;49.864;19.084;2023-06-26T08:26:10;11.50;;;5.13;;
68108;SDS011;54893;49.864;19.084;2023-06-26T08:31:11;11.63;;;5.50;;
68108;SDS011;54893;49.864;19.084;2023-06-26T08:36:12;10.05;;;4.93;;
68108;SDS011;54893;49.864;19.084;2023-06-26T08:41:13;9.50;;;5.33;;
68108;SDS011;54893;49.864;19.084;2023-06-26T08:46:14;9.90;;;5.27;;
68108;SDS011;54893;49.864;19.084;2023-06-26T08:51:16;10.55;;;5.68;;
68108;SDS011;54893;49.864;19.084;2023-06-26T08:56:19;10.67;;;5.27;;
68108;SDS011;54893;49.864;19.084;2023-06-26T09:01:22;8.38;;;4.65;;
68108;SDS011;54893;49.864;19.084;2023-06-26T09:06:23;7.43;;;4.28;;
68108;SDS011;54893;49.864;19.084;2023-06-26T09:11:24;9.80;;;5.00;;
68108;SDS011;54893;49.864;19.084;2023-06-26T09:16:25;9.63;;;5.23;;
68108;SDS011;54893;49.864;19.084;2023-06-26T09:21:26;22.75;;;5.15;;
68108;SDS011;54893;49.864;19.084;2023-06-26T09:26:27;7.37;;;4.67;;
68108;SDS011;54893;49.864;19.084;2023-06-26T09:31:27;7.17;;;4.57;;
68108;SDS011;54893;49.864;19.084;2023-06-26T09:36:29;7.97;;;4.95;;
68108;SDS011;54893;49.864;19.084;2023-06-26T09:41:34;8.17;;;4.77;;
68108;SDS011;54893;49.864;19.084;2023-06-26T09:46:37;9.85;;;5.18;;
68108;SDS011;54893;49.864;19.084;2023-06-26T09:51:39;9.23;;;5.20;;
68108;SDS011;54893;49.864;19.084;2023-06-26T09:56:40;7.80;;;4.80;;
68108;SDS011;54893;49.864;19.084;2023-06-26T10:01:41;10.77;;;5.10;;
68108;SDS011;54893;49.864;19.084;2023-06-26T10:06:46;8.70;;;4.88;;
68108;SDS011;54893;49.864;19.084;2023-06-26T10:12:03;9.00;;;5.63;;
68108;SDS011;54893;49.864;19.084;2023-06-26T10:17:10;8.32;;;4.78;;
68108;SDS011;54893;49.864;19.084;2023-06-26T10:22:15;12.43;;;4.97;;
68108;SDS011;54893;49.864;19.084;2023-06-26T10:27:18;8.77;;;4.33;;
68108;SDS011;54893;49.864;19.084;2023-06-26T10:32:20;7.13;;;4.60;;
68108;SDS011;54893;49.864;19.084;2023-06-26T10:37:40;6.80;;;4.03;;
68108;SDS011;54893;49.864;19.084;2023-06-26T10:42:43;26.15;;;4.82;;
68108;SDS011;54893;49.864;19.084;2023-06-26T10:47:47;7.60;;;4.80;;
68108;SDS011;54893;49.864;19.084;2023-06-26T11:04:03;8.90;;;4.63;;
68108;SDS011;54893;49.864;19.084;2023-06-26T11:09:11;7.63;;;4.63;;
68108;SDS011;54893;49.864;19.084;2023-06-26T11:14:14;8.95;;;5.30;;
68108;SDS011;54893;49.864;19.084;2023-06-26T11:19:16;7.35;;;4.85;;
68108;SDS011;54893;49.864;19.084;2023-06-26T11:24:18;7.63;;;4.93;;
68108;SDS011;54893;49.864;19.084;2023-06-26T11:29:19;7.63;;;5.17;;
68108;SDS011;54893;49.864;19.084;2023-06-26T11:34:19;10.60;;;5.27;;
68108;SDS011;54893;49.864;19.084;2023-06-26T11:39:22;8.13;;;5.30;;
68108;SDS011;54893;49.864;19.084;2023-06-26T11:44:23;11.07;;;5.43;;
68108;SDS011;54893;49.864;19.084;2023-06-26T11:49:25;9.25;;;5.22;;
68108;SDS011;54893;49.864;19.084;2023-06-26T11:54:26;8.50;;;5.35;;
68108;SDS011;54893;49.864;19.084;2023-06-26T11:59:38;15.20;;;5.87;;
68108;SDS011;54893;49.864;19.084;2023-06-26T12:04:42;8.10;;;4.95;;
68108;SDS011;54893;49.864;19.084;2023-06-26T12:09:44;9.53;;;5.57;;
68108;SDS011;54893;49.864;19.084;2023-06-26T12:14:46;11.07;;;6.07;;
68108;SDS011;54893;49.864;19.084;2023-06-26T12:19:47;8.63;;;5.70;;
68108;SDS011;54893;49.864;19.084;2023-06-26T12:24:50;10.18;;;5.50;;
68108;SDS011;54893;49.864;19.084;2023-06-26T12:29:51;7.97;;;5.30;;
68108;SDS011;54893;49.864;19.084;2023-06-26T12:34:53;9.25;;;5.63;;
68108;SDS011;54893;49.864;19.084;2023-06-26T12:39:57;8.50;;;5.20;;
68108;SDS011;54893;49.864;19.084;2023-06-26T12:44:58;7.85;;;5.05;;
68108;SDS011;54893;49.864;19.084;2023-06-26T12:49:58;8.83;;;5.27;;
68108;SDS011;54893;49.864;19.084;2023-06-26T12:54:59;8.67;;;5.40;;
68108;SDS011;54893;49.864;19.084;2023-06-26T12:59:59;10.93;;;5.67;;
68108;SDS011;54893;49.864;19.084;2023-06-26T13:05:00;7.53;;;5.10;;
68108;SDS011;54893;49.864;19.084;2023-06-26T13:10:01;8.87;;;5.67;;
68108;SDS011;54893;49.864;19.084;2023-06-26T13:15:01;8.53;;;5.57;;
68108;SDS011;54893;49.864;19.084;2023-06-26T13:20:02;8.57;;;5.17;;
68108;SDS011;54893;49.864;19.084;2023-06-26T13:25:04;7.67;;;5.10;;
68108;SDS011;54893;49.864;19.084;2023-06-26T13:30:04;8.73;;;4.97;;
68108;SDS011;54893;49.864;19.084;2023-06-26T13:35:05;8.23;;;5.13;;
68108;SDS011;54893;49.864;19.084;2023-06-26T13:40:07;7.80;;;5.18;;
68108;SDS011;54893;49.864;19.084;2023-06-26T13:45:08;7.87;;;4.80;;
68108;SDS011;54893;49.864;19.084;2023-06-26T13:50:09;7.72;;;4.80;;
68108;SDS011;54893;49.864;19.084;2023-06-26T13:55:10;10.50;;;5.00;;
68108;SDS011;54893;49.864;19.084;2023-06-26T14:00:10;8.93;;;4.47;;
68108;SDS011;54893;49.864;19.084;2023-06-26T14:05:12;7.45;;;4.57;;
68108;SDS011;54893;49.864;19.084;2023-06-26T14:10:13;8.90;;;5.30;;
68108;SDS011;54893;49.864;19.084;2023-06-26T14:15:13;7.15;;;4.47;;
68108;SDS011;54893;49.864;19.084;2023-06-26T14:20:14;7.00;;;4.57;;
68108;SDS011;54893;49.864;19.084;2023-06-26T14:25:15;8.00;;;5.30;;
68108;SDS011;54893;49.864;19.084;2023-06-26T14:30:16;7.83;;;5.13;;
68108;SDS011;54893;49.864;19.084;2023-06-26T14:35:17;7.30;;;5.03;;
68108;SDS011;54893;49.864;19.084;2023-06-26T14:40:17;6.43;;;4.88;;
68108;SDS011;54893;49.864;19.084;2023-06-26T14:45:18;7.80;;;5.70;;
68108;SDS011;54893;49.864;19.084;2023-06-26T14:50:18;7.50;;;5.30;;
68108;SDS011;54893;49.864;19.084;2023-06-26T14:55:19;8.77;;;6.30;;
68108;SDS011;54893;49.864;19.084;2023-06-26T15:00:19;6.73;;;5.50;;
68108;SDS011;54893;49.864;19.084;2023-06-26T15:05:20;7.60;;;5.73;;
68108;SDS011;54893;49.864;19.084;2023-06-26T15:10:22;6.10;;;5.50;;
68108;SDS011;54893;49.864;19.084;2023-06-26T15:15:22;6.00;;;5.20;;
68108;SDS011;54893;49.864;19.084;2023-06-26T15:20:22;8.30;;;5.50;;
68108;SDS011;54893;49.864;19.084;2023-06-26T15:25:23;6.63;;;5.40;;
68108;SDS011;54893;49.864;19.084;2023-06-26T15:30:23;8.07;;;5.90;;
68108;SDS011;54893;49.864;19.084;2023-06-26T15:35:24;7.70;;;5.80;;
68108;SDS011;54893;49.864;19.084;2023-06-26T15:40:24;7.03;;;6.00;;
68108;SDS011;54893;49.864;19.084;2023-06-26T15:45:24;7.93;;;5.20;;
68108;SDS011;54893;49.864;19.084;2023-06-26T15:50:25;6.13;;;5.43;;
68108;SDS011;54893;49.864;19.084;2023-06-26T15:55:27;7.90;;;5.70;;
68108;SDS011;54893;49.864;19.084;2023-06-26T16:00:28;6.67;;;5.67;;
68108;SDS011;54893;49.864;19.084;2023-06-26T16:05:28;7.10;;;5.30;;
68108;SDS011;54893;49.864;19.084;2023-06-26T16:10:29;11.10;;;5.77;;
68108;SDS011;54893;49.864;19.084;2023-06-26T16:15:29;7.30;;;5.60;;
68108;SDS011;54893;49.864;19.084;2023-06-26T16:20:29;7.10;;;5.30;;
68108;SDS011;54893;49.864;19.084;2023-06-26T16:25:30;6.73;;;5.70;;
68108;SDS011;54893;49.864;19.084;2023-06-26T16:30:30;8.73;;;6.13;;
68108;SDS011;54893;49.864;19.084;2023-06-26T16:35:31;8.83;;;6.00;;
68108;SDS011;54893;49.864;19.084;2023-06-26T16:40:34;7.07;;;6.00;;
68108;SDS011;54893;49.864;19.084;2023-06-26T16:45:34;8.65;;;5.55;;
68108;SDS011;54893;49.864;19.084;2023-06-26T16:50:35;15.23;;;12.97;;
68108;SDS011;54893;49.864;19.084;2023-06-26T16:55:35;13.13;;;11.83;;
68108;SDS011;54893;49.864;19.084;2023-06-26T17:00:35;10.33;;;9.33;;
68108;SDS011;54893;49.864;19.084;2023-06-26T17:05:38;7.23;;;6.23;;
68108;SDS011;54893;49.864;19.084;2023-06-26T17:10:38;12.60;;;10.03;;
68108;SDS011;54893;49.864;19.084;2023-06-26T17:15:39;10.75;;;8.85;;
68108;SDS011;54893;49.864;19.084;2023-06-26T17:20:39;8.37;;;6.03;;
68108;SDS011;54893;49.864;19.084;2023-06-26T17:25:40;7.60;;;5.93;;
68108;SDS011;54893;49.864;19.084;2023-06-26T17:30:40;7.20;;;5.60;;
68108;SDS011;54893;49.864;19.084;2023-06-26T17:35:42;8.60;;;6.67;;
68108;SDS011;54893;49.864;19.084;2023-06-26T17:40:42;8.53;;;6.07;;
68108;SDS011;54893;49.864;19.084;2023-06-26T17:45:42;16.10;;;12.20;;
68108;SDS011;54893;49.864;19.084;2023-06-26T17:50:43;7.60;;;5.90;;
68108;SDS011;54893;49.864;19.084;2023-06-26T17:55:43;11.10;;;7.60;;
68108;SDS011;54893;49.864;19.084;2023-06-26T18:00:44;11.10;;;7.83;;
68108;SDS011;54893;49.864;19.084;2023-06-26T18:05:44;8.40;;;5.83;;
68108;SDS011;54893;49.864;19.084;2023-06-26T18:10:44;10.43;;;6.67;;
68108;SDS011;54893;49.864;19.084;2023-06-26T18:15:45;6.77;;;4.77;;
68108;SDS011;54893;49.864;19.084;2023-06-26T18:20:45;11.17;;;4.40;;
68108;SDS011;54893;49.864;19.084;2023-06-26T18:25:46;11.13;;;4.20;;
68108;SDS011;54893;49.864;19.084;2023-06-26T18:30:46;13.27;;;5.07;;
68108;SDS011;54893;49.864;19.084;2023-06-26T18:35:47;13.87;;;5.37;;
68108;SDS011;54893;49.864;19.084;2023-06-26T18:40:47;11.13;;;7.50;;
68108;SDS011;54893;49.864;19.084;2023-06-26T18:45:48;21.90;;;13.93;;
68108;SDS011;54893;49.864;19.084;2023-06-26T18:50:48;11.95;;;7.43;;
68108;SDS011;54893;49.864;19.084;2023-06-26T18:55:48;12.10;;;8.00;;
68108;SDS011;54893;49.864;19.084;2023-06-26T19:00:49;14.27;;;9.00;;
68108;SDS011;54893;49.864;19.084;2023-06-26T19:05:49;12.97;;;7.40;;
68108;SDS011;54893;49.864;19.084;2023-06-26T19:10:50;11.50;;;6.47;;
68108;SDS011;54893;49.864;19.084;2023-06-26T19:15:50;9.93;;;5.90;;
68108;SDS011;54893;49.864;19.084;2023-06-26T19:20:50;11.37;;;5.13;;
68108;SDS011;54893;49.864;19.084;2023-06-26T19:25:51;9.60;;;5.37;;
68108;SDS011;54893;49.864;19.084;2023-06-26T19:30:51;9.80;;;5.80;;
68108;SDS011;54893;49.864;19.084;2023-06-26T19:35:52;10.50;;;5.83;;
68108;SDS011;54893;49.864;19.084;2023-06-26T19:40:52;9.87;;;4.83;;
68108;SDS011;54893;49.864;19.084;2023-06-26T19:45:53;16.83;;;5.73;;
68108;SDS011;54893;49.864;19.084;2023-06-26T19:51:07;13.73;;;5.57;;
68108;SDS011;54893;49.864;19.084;2023-06-26T19:56:08;10.30;;;5.10;;
68108;SDS011;54893;49.864;19.084;2023-06-26T20:01:08;11.23;;;5.30;;
68108;SDS011;54893;49.864;19.084;2023-06-26T20:06:09;10.67;;;5.50;;
68108;SDS011;54893;49.864;19.084;2023-06-26T20:11:09;11.20;;;5.63;;
68108;SDS011;54893;49.864;19.084;2023-06-26T20:16:10;12.93;;;5.97;;
68108;SDS011;54893;49.864;19.084;2023-06-26T20:21:10;9.65;;;5.43;;
68108;SDS011;54893;49.864;19.084;2023-06-26T20:26:11;10.17;;;5.50;;
68108;SDS011;54893;49.864;19.084;2023-06-26T20:31:12;9.48;;;5.53;;
68108;SDS011;54893;49.864;19.084;2023-06-26T20:36:12;10.43;;;5.53;;
68108;SDS011;54893;49.864;19.084;2023-06-26T20:41:13;12.57;;;5.90;;
68108;SDS011;54893;49.864;19.084;2023-06-26T20:46:13;9.43;;;5.60;;
68108;SDS011;54893;49.864;19.084;2023-06-26T20:51:17;9.55;;;5.60;;
68108;SDS011;54893;49.864;19.084;2023-06-26T20:56:22;12.82;;;6.45;;
68108;SDS011;54893;49.864;19.084;2023-06-26T21:01:24;11.27;;;5.73;;
68108;SDS011;54893;49.864;19.084;2023-06-26T21:06:25;10.80;;;5.40;;
68108;SDS011;54893;49.864;19.084;2023-06-26T21:11:25;9.53;;;5.30;;
68108;SDS011;54893;49.864;19.084;2023-06-26T21:16:26;12.47;;;5.57;;
68108;SDS011;54893;49.864;19.084;2023-06-26T21:21:26;9.73;;;5.40;;
68108;SDS011;54893;49.864;19.084;2023-06-26T21:26:27;12.40;;;6.10;;
68108;SDS011;54893;49.864;19.084;2023-06-26T21:31:27;10.60;;;6.30;;
68108;SDS011;54893;49.864;19.084;2023-06-26T21:36:27;12.60;;;6.80;;
68108;SDS011;54893;49.864;19.084;2023-06-26T21:41:28;12.37;;;6.97;;
68108;SDS011;54893;49.864;19.084;2023-06-26T21:46:29;17.43;;;6.97;;
68108;SDS011;54893;49.864;19.084;2023-06-26T21:51:29;13.40;;;7.07;;
68108;SDS011;54893;49.864;19.084;2023-06-26T21:56:30;13.87;;;7.27;;
68108;SDS011;54893;49.864;19.084;2023-06-26T22:01:30;13.80;;;7.43;;
68108;SDS011;54893;49.864;19.084;2023-06-26T22:06:30;15.40;;;7.53;;
68108;SDS011;54893;49.864;19.084;2023-06-26T22:11:31;14.13;;;7.43;;
68108;SDS011;54893;49.864;19.084;2023-06-26T22:16:31;12.75;;;7.30;;
68108;SDS011;54893;49.864;19.084;2023-06-26T22:21:32;14.70;;;7.75;;
68108;SDS011;54893;49.864;19.084;2023-06-26T22:26:32;12.43;;;6.97;;
68108;SDS011;54893;49.864;19.084;2023-06-26T22:31:32;11.47;;;6.90;;
68108;SDS011;54893;49.864;19.084;2023-06-26T22:36:33;13.57;;;7.00;;
68108;SDS011;54893;49.864;19.084;2023-06-26T22:41:33;13.43;;;7.10;;
68108;SDS011;54893;49.864;19.084;2023-06-26T22:46:34;14.10;;;7.17;;
68108;SDS011;54893;49.864;19.084;2023-06-26T22:51:34;13.13;;;6.50;;
68108;SDS011;54893;49.864;19.084;2023-06-26T22:56:34;10.60;;;5.83;;
68108;SDS011;54893;49.864;19.084;2023-06-26T23:01:35;12.87;;;6.53;;
68108;SDS011;54893;49.864;19.084;2023-06-26T23:06:36;9.82;;;5.30;;
68108;SDS011;54893;49.864;19.084;2023-06-26T23:11:37;13.38;;;6.32;;
68108;SDS011;54893;49.864;19.084;2023-06-26T23:16:38;10.60;;;5.90;;
68108;SDS011;54893;49.864;19.084;2023-06-26T23:21:39;12.93;;;6.10;;
68108;SDS011;54893;49.864;19.084;2023-06-26T23:26:39;10.23;;;5.93;;
68108;SDS011;54893;49.864;19.084;2023-06-26T23:31:40;11.73;;;6.93;;
68108;SDS011;54893;49.864;19.084;2023-06-26T23:36:44;12.95;;;7.28;;
68108;SDS011;54893;49.864;19.084;2023-06-26T23:41:45;12.18;;;7.05;;
68108;SDS011;54893;49.864;19.084;2023-06-26T23:46:49;11.77;;;7.25;;
68108;SDS011;54893;49.864;19.084;2023-06-26T23:51:50;14.47;;;7.80;;
68108;SDS011;54893;49.864;19.084;2023-06-26T23:56:51;11.57;;;7.00;;
